アムステルダム/スキポール の空港の天気 - METARとTAF

スキポール空港(アムステルダム) ( EHAM / AMS ) - オランダ アムステルダム
飛行場実況気象(Metar)
観測時間12/14 07:25 CET (12/14 06:25 UTC)
風向・風速東北東 3m/s
視程10km以上
天気現象
少しの雲 雲底高度 300m
気温2℃
湿度87%
気圧1023hPa
METAREHAM 140625Z 06006KT 030V090 9999 FEW010 02/00 Q1023 NOSIG
過去の天気等 Google飛行場航空写真 Wunderground天気予報

過去48時間のMETAR

飛行場予報(TAF)
発表時間: 12/14 05:38 CET (12/14 04:38 UTC)
予報対象時間: 14日7時 CET ~ 15日13時 CET
風向・風速東北東 5m/s
視程10km以上
全天の4割程度の雲 雲底高度 760m
全天の8割程度の雲 雲底高度 1370m
14日22時 CET ~ 15日1時 CET に徐々に
風向・風速東 4m/s
15日4時 CET ~ 15日7時 CET に徐々に
風向・風速南東 5m/s
15日10時 CET ~ 15日13時 CET に徐々に
風向・風速南東 6m/s
TAF EHAM 140438Z 1406/1512 07009KT 9999 SCT025 BKN045
BECMG 1421/1424 10007KT
BECMG 1503/1506 13009KT
BECMG 1509/1512 14012KT